Lake Clear, NY

3:19 PM EDT on September 22, 2014 (GMT -0400)
Adirondack Regional | Change Station
CLOSE
Current Station
Airport
Location: Saranac Lake,
Elevation: 1660 ft
Nearby Weather Stations

Elev 1660 ft 44.39 °N, 74.21 °W | Updated 41 minutes ago

Overcast
Overcast
42 °F
Feels Like 37 °F
N
9
Wind Variable Wind from West
Gusts 20 mph

Today
High -- | Low -- °F
--% Chance of Precip.
Yesterday
High -- | Low -- °F
Precip. -- in
6:43 AM 6:54 PM
Waning Crescent, 2% visible
Pressure 29.91 in
Visibility 6.0 miles
Clouds Mostly Cloudy 1300 ft
Mostly Cloudy 2000 ft
Overcast 2700 ft
Windchill 37 °F
Dew Point 39 °F
Humidity 89%
Rainfall 0.00 in
Snow Depth Not available.
UV 2 out of 12
Pollen 1.20 out of 12
Air Quality Not available.
Flu Activity Not available.
SPECI KSLK 221838Z AUTO 27008G17KT 6SM -RA BR BKN013 BKN020 OVC027 06/04 A2991 RMK AO2 RAB28 P0000 T00560039

More Conditions Fewer Conditions

Pressure 29.91 in
Visibility 6.0 miles
Clouds Mostly Cloudy 1300 ft
Mostly Cloudy 2000 ft
Overcast 2700 ft
Windchill 37 °F
Dew Point 39 °F
Humidity 89%
Rainfall 0.00 in
Snow Depth Not available.
UV 2 out of 12
Pollen 1.20 out of 12
Air Quality Not available.
Flu Activity Not available.
SPECI KSLK 221838Z AUTO 27008G17KT 6SM -RA BR BKN013 BKN020 OVC027 06/04 A2991 RMK AO2 RAB28 P0000 T00560039

More Conditions Fewer Conditions

10-Day Weather Forecast

Almanac

Astronomy

Sep. 22, 2014 Rise Set
Actual Time 6:43 AM EDT 6:54 PM EDT
Civil Twilight 6:14 AM EDT 7:23 PM EDT
Nautical Twilight 5:40 AM EDT 7:57 PM EDT
Astronomical Twilight 5:05 AM EDT 8:32 PM EDT
Moon 5:07 AM EDT 6:02 PM EDT
Length of Visible Light 13h 08m
Length of Day
12h 10m
Tomorrow will be 3m 3s shorter.
Waning Crescent, 2% of the Moon is Illuminated
Today
Waning Crescent
Sep 24
New
Oct 1
First Quarter
Oct 8
Full
Oct 15
Last Quarter

Today's Extremes

State Highs State Lows

Community

WunderPhotos

Upload Photos

1,755,514 photos uploaded!

WunderBlogs® & News

Nearby

Air Quality

  Air Quality AQ Index Pollutant
Monday Good
OZONE
Monday Good
PM2.5
Tuesday Good
OZONE
Tuesday Good
PM2.5

Snow Depth

Station Depth Elevation
No new snow has been reported.

Earthquake Activity

City Distance Mag. Time & Date
No recent earthquake activity has been reported nearby.
Minimum magnitude displayed is 2.5.

Coastal Water Temperatures

Place Temperature
No Stations Reporting

Nearby Weather Stations